sensor_id;sensor_type;location;lat;lon;timestamp;P1;durP1;ratioP1;P2;durP2;ratioP2
4984;SDS011;2509;49.902;8.600;2023-11-21T00:02:14;4.73;;;1.00;;
4984;SDS011;2509;49.902;8.600;2023-11-21T00:05:16;6.00;;;1.53;;
4984;SDS011;2509;49.902;8.600;2023-11-21T00:08:19;4.10;;;1.20;;
4984;SDS011;2509;49.902;8.600;2023-11-21T00:11:21;6.03;;;1.40;;
4984;SDS011;2509;49.902;8.600;2023-11-21T00:14:23;4.93;;;1.53;;
4984;SDS011;2509;49.902;8.600;2023-11-21T00:17:24;7.17;;;1.87;;
4984;SDS011;2509;49.902;8.600;2023-11-21T00:20:26;3.90;;;1.60;;
4984;SDS011;2509;49.902;8.600;2023-11-21T00:23:29;7.03;;;2.10;;
4984;SDS011;2509;49.902;8.600;2023-11-21T00:26:31;4.50;;;1.50;;
4984;SDS011;2509;49.902;8.600;2023-11-21T00:29:36;4.33;;;2.10;;
4984;SDS011;2509;49.902;8.600;2023-11-21T00:32:39;4.77;;;1.57;;
4984;SDS011;2509;49.902;8.600;2023-11-21T00:35:41;4.07;;;1.70;;
4984;SDS011;2509;49.902;8.600;2023-11-21T00:38:44;6.67;;;2.20;;
4984;SDS011;2509;49.902;8.600;2023-11-21T00:41:45;4.70;;;1.60;;
4984;SDS011;2509;49.902;8.600;2023-11-21T00:44:48;7.00;;;1.47;;
4984;SDS011;2509;49.902;8.600;2023-11-21T00:47:50;5.13;;;2.73;;
4984;SDS011;2509;49.902;8.600;2023-11-21T00:50:51;6.00;;;2.67;;
4984;SDS011;2509;49.902;8.600;2023-11-21T00:53:55;5.93;;;2.37;;
4984;SDS011;2509;49.902;8.600;2023-11-21T00:56:56;6.13;;;2.60;;
4984;SDS011;2509;49.902;8.600;2023-11-21T00:59:58;6.40;;;2.80;;
4984;SDS011;2509;49.902;8.600;2023-11-21T01:03:00;6.20;;;2.90;;
4984;SDS011;2509;49.902;8.600;2023-11-21T01:06:02;5.30;;;2.30;;
4984;SDS011;2509;49.902;8.600;2023-11-21T01:09:08;7.10;;;3.53;;
4984;SDS011;2509;49.902;8.600;2023-11-21T01:12:10;6.00;;;3.00;;
4984;SDS011;2509;49.902;8.600;2023-11-21T01:15:12;5.50;;;3.00;;
4984;SDS011;2509;49.902;8.600;2023-11-21T01:18:14;6.67;;;3.47;;
4984;SDS011;2509;49.902;8.600;2023-11-21T01:21:15;5.50;;;3.23;;
4984;SDS011;2509;49.902;8.600;2023-11-21T01:24:19;6.70;;;3.67;;
4984;SDS011;2509;49.902;8.600;2023-11-21T01:27:20;8.90;;;4.50;;
4984;SDS011;2509;49.902;8.600;2023-11-21T01:30:22;7.63;;;4.10;;
4984;SDS011;2509;49.902;8.600;2023-11-21T01:33:25;5.57;;;3.73;;
4984;SDS011;2509;49.902;8.600;2023-11-21T01:36:29;5.10;;;3.37;;
4984;SDS011;2509;49.902;8.600;2023-11-21T01:39:34;6.73;;;4.10;;
4984;SDS011;2509;49.902;8.600;2023-11-21T01:42:39;6.93;;;3.73;;
4984;SDS011;2509;49.902;8.600;2023-11-21T01:45:41;7.47;;;3.97;;
4984;SDS011;2509;49.902;8.600;2023-11-21T01:48:43;9.33;;;4.90;;
4984;SDS011;2509;49.902;8.600;2023-11-21T01:51:45;8.27;;;4.33;;
4984;SDS011;2509;49.902;8.600;2023-11-21T01:54:51;7.13;;;4.40;;
4984;SDS011;2509;49.902;8.600;2023-11-21T01:57:54;5.37;;;3.47;;
4984;SDS011;2509;49.902;8.600;2023-11-21T02:00:56;7.40;;;4.60;;
4984;SDS011;2509;49.902;8.600;2023-11-21T02:03:58;6.50;;;3.90;;
4984;SDS011;2509;49.902;8.600;2023-11-21T02:07:00;7.43;;;4.87;;
4984;SDS011;2509;49.902;8.600;2023-11-21T02:10:03;6.60;;;4.03;;
4984;SDS011;2509;49.902;8.600;2023-11-21T02:13:05;8.63;;;4.03;;
4984;SDS011;2509;49.902;8.600;2023-11-21T02:16:07;6.10;;;3.80;;
4984;SDS011;2509;49.902;8.600;2023-11-21T02:19:09;9.20;;;5.03;;
4984;SDS011;2509;49.902;8.600;2023-11-21T02:22:14;8.03;;;4.80;;
4984;SDS011;2509;49.902;8.600;2023-11-21T02:25:18;5.90;;;3.13;;
4984;SDS011;2509;49.902;8.600;2023-11-21T02:28:19;6.53;;;4.33;;
4984;SDS011;2509;49.902;8.600;2023-11-21T02:31:25;8.60;;;4.70;;
4984;SDS011;2509;49.902;8.600;2023-11-21T02:34:27;8.83;;;4.00;;
4984;SDS011;2509;49.902;8.600;2023-11-21T02:37:29;9.17;;;5.87;;
4984;SDS011;2509;49.902;8.600;2023-11-21T02:40:32;7.20;;;5.30;;
4984;SDS011;2509;49.902;8.600;2023-11-21T02:43:33;7.60;;;4.43;;
4984;SDS011;2509;49.902;8.600;2023-11-21T02:46:35;8.77;;;5.00;;
4984;SDS011;2509;49.902;8.600;2023-11-21T02:49:39;8.87;;;5.50;;
4984;SDS011;2509;49.902;8.600;2023-11-21T02:52:40;6.40;;;3.70;;
4984;SDS011;2509;49.902;8.600;2023-11-21T02:55:43;8.90;;;6.07;;
4984;SDS011;2509;49.902;8.600;2023-11-21T02:58:45;9.70;;;6.20;;
4984;SDS011;2509;49.902;8.600;2023-11-21T03:01:47;8.10;;;5.80;;
4984;SDS011;2509;49.902;8.600;2023-11-21T03:04:49;9.47;;;5.20;;
4984;SDS011;2509;49.902;8.600;2023-11-21T03:07:51;8.40;;;4.70;;
4984;SDS011;2509;49.902;8.600;2023-11-21T03:10:54;9.93;;;5.80;;
4984;SDS011;2509;49.902;8.600;2023-11-21T03:13:56;9.90;;;6.20;;
4984;SDS011;2509;49.902;8.600;2023-11-21T03:16:57;10.60;;;7.57;;
4984;SDS011;2509;49.902;8.600;2023-11-21T03:19:59;12.03;;;7.73;;
4984;SDS011;2509;49.902;8.600;2023-11-21T03:23:01;11.10;;;7.33;;
4984;SDS011;2509;49.902;8.600;2023-11-21T03:26:11;12.93;;;8.30;;
4984;SDS011;2509;49.902;8.600;2023-11-21T03:29:13;13.57;;;9.10;;
4984;SDS011;2509;49.902;8.600;2023-11-21T03:32:15;14.00;;;8.60;;
4984;SDS011;2509;49.902;8.600;2023-11-21T03:35:16;10.37;;;7.97;;
4984;SDS011;2509;49.902;8.600;2023-11-21T03:38:21;12.30;;;7.43;;
4984;SDS011;2509;49.902;8.600;2023-11-21T03:41:24;12.70;;;8.90;;
4984;SDS011;2509;49.902;8.600;2023-11-21T03:44:25;12.00;;;7.70;;
4984;SDS011;2509;49.902;8.600;2023-11-21T03:47:27;15.60;;;11.03;;
4984;SDS011;2509;49.902;8.600;2023-11-21T03:50:29;13.40;;;9.20;;
4984;SDS011;2509;49.902;8.600;2023-11-21T03:53:31;16.40;;;11.10;;
4984;SDS011;2509;49.902;8.600;2023-11-21T03:56:34;16.40;;;11.30;;
4984;SDS011;2509;49.902;8.600;2023-11-21T03:59:36;15.30;;;10.97;;
4984;SDS011;2509;49.902;8.600;2023-11-21T04:02:41;16.60;;;10.53;;
4984;SDS011;2509;49.902;8.600;2023-11-21T04:05:43;25.00;;;14.47;;
4984;SDS011;2509;49.902;8.600;2023-11-21T04:08:45;21.70;;;12.97;;
4984;SDS011;2509;49.902;8.600;2023-11-21T04:11:49;10.20;;;8.10;;
4984;SDS011;2509;49.902;8.600;2023-11-21T04:14:50;11.37;;;8.53;;
4984;SDS011;2509;49.902;8.600;2023-11-21T04:17:52;12.53;;;9.53;;
4984;SDS011;2509;49.902;8.600;2023-11-21T04:20:54;22.70;;;14.27;;
4984;SDS011;2509;49.902;8.600;2023-11-21T04:23:55;22.00;;;14.30;;
4984;SDS011;2509;49.902;8.600;2023-11-21T04:26:58;32.77;;;18.37;;
4984;SDS011;2509;49.902;8.600;2023-11-21T04:30:00;26.10;;;15.83;;
4984;SDS011;2509;49.902;8.600;2023-11-21T04:33:02;27.40;;;15.93;;
4984;SDS011;2509;49.902;8.600;2023-11-21T04:36:04;15.80;;;11.53;;
4984;SDS011;2509;49.902;8.600;2023-11-21T04:39:06;19.13;;;12.07;;
4984;SDS011;2509;49.902;8.600;2023-11-21T04:42:10;12.50;;;9.90;;
4984;SDS011;2509;49.902;8.600;2023-11-21T04:45:12;33.33;;;19.27;;
4984;SDS011;2509;49.902;8.600;2023-11-21T04:48:14;29.90;;;18.17;;
4984;SDS011;2509;49.902;8.600;2023-11-21T04:51:16;20.13;;;14.90;;
4984;SDS011;2509;49.902;8.600;2023-11-21T04:54:18;24.27;;;16.00;;
4984;SDS011;2509;49.902;8.600;2023-11-21T04:57:21;38.83;;;19.00;;
4984;SDS011;2509;49.902;8.600;2023-11-21T05:00:23;28.20;;;17.07;;
4984;SDS011;2509;49.902;8.600;2023-11-21T05:03:24;20.63;;;13.63;;
4984;SDS011;2509;49.902;8.600;2023-11-21T05:06:26;36.20;;;20.70;;
4984;SDS011;2509;49.902;8.600;2023-11-21T05:09:28;23.10;;;14.70;;
4984;SDS011;2509;49.902;8.600;2023-11-21T05:12:33;21.30;;;13.30;;
4984;SDS011;2509;49.902;8.600;2023-11-21T05:15:36;23.17;;;13.00;;
4984;SDS011;2509;49.902;8.600;2023-11-21T05:18:39;11.30;;;7.10;;
4984;SDS011;2509;49.902;8.600;2023-11-21T05:21:40;7.03;;;4.27;;
4984;SDS011;2509;49.902;8.600;2023-11-21T05:24:42;5.07;;;3.17;;
4984;SDS011;2509;49.902;8.600;2023-11-21T05:27:45;7.67;;;3.50;;
4984;SDS011;2509;49.902;8.600;2023-11-21T05:30:47;6.20;;;4.10;;
4984;SDS011;2509;49.902;8.600;2023-11-21T05:33:50;4.70;;;2.70;;
4984;SDS011;2509;49.902;8.600;2023-11-21T05:36:52;5.03;;;2.70;;
4984;SDS011;2509;49.902;8.600;2023-11-21T05:39:53;5.40;;;2.83;;
4984;SDS011;2509;49.902;8.600;2023-11-21T05:42:57;4.50;;;2.27;;
4984;SDS011;2509;49.902;8.600;2023-11-21T05:45:59;4.97;;;2.50;;
4984;SDS011;2509;49.902;8.600;2023-11-21T05:49:01;4.63;;;2.27;;
4984;SDS011;2509;49.902;8.600;2023-11-21T05:52:03;4.27;;;2.00;;
4984;SDS011;2509;49.902;8.600;2023-11-21T05:55:06;4.70;;;2.13;;
4984;SDS011;2509;49.902;8.600;2023-11-21T05:58:09;5.37;;;2.67;;
4984;SDS011;2509;49.902;8.600;2023-11-21T06:01:13;11.20;;;3.07;;
4984;SDS011;2509;49.902;8.600;2023-11-21T06:04:15;3.50;;;1.20;;
4984;SDS011;2509;49.902;8.600;2023-11-21T06:07:18;3.70;;;1.20;;
4984;SDS011;2509;49.902;8.600;2023-11-21T06:10:20;5.07;;;1.63;;
4984;SDS011;2509;49.902;8.600;2023-11-21T06:13:25;4.73;;;1.20;;
4984;SDS011;2509;49.902;8.600;2023-11-21T06:16:26;3.67;;;1.53;;
4984;SDS011;2509;49.902;8.600;2023-11-21T06:19:29;5.20;;;1.73;;
4984;SDS011;2509;49.902;8.600;2023-11-21T06:22:30;5.40;;;3.97;;
4984;SDS011;2509;49.902;8.600;2023-11-21T06:25:32;4.30;;;2.30;;
4984;SDS011;2509;49.902;8.600;2023-11-21T06:28:37;4.90;;;2.20;;
4984;SDS011;2509;49.902;8.600;2023-11-21T06:31:39;5.90;;;2.90;;
4984;SDS011;2509;49.902;8.600;2023-11-21T06:34:41;4.83;;;2.73;;
4984;SDS011;2509;49.902;8.600;2023-11-21T06:37:43;5.50;;;2.70;;
4984;SDS011;2509;49.902;8.600;2023-11-21T06:40:47;5.43;;;3.03;;
4984;SDS011;2509;49.902;8.600;2023-11-21T06:43:50;21.53;;;19.53;;
4984;SDS011;2509;49.902;8.600;2023-11-21T06:46:53;6.30;;;4.07;;
4984;SDS011;2509;49.902;8.600;2023-11-21T06:49:55;7.53;;;4.73;;
4984;SDS011;2509;49.902;8.600;2023-11-21T06:52:56;7.07;;;3.30;;
4984;SDS011;2509;49.902;8.600;2023-11-21T06:55:58;9.73;;;5.00;;
4984;SDS011;2509;49.902;8.600;2023-11-21T06:59:01;5.30;;;3.23;;
4984;SDS011;2509;49.902;8.600;2023-11-21T07:02:05;6.83;;;3.10;;
4984;SDS011;2509;49.902;8.600;2023-11-21T07:05:07;7.47;;;3.87;;
4984;SDS011;2509;49.902;8.600;2023-11-21T07:08:09;5.40;;;3.27;;
4984;SDS011;2509;49.902;8.600;2023-11-21T07:11:11;6.67;;;3.30;;
4984;SDS011;2509;49.902;8.600;2023-11-21T07:14:14;5.83;;;3.30;;
4984;SDS011;2509;49.902;8.600;2023-11-21T07:17:17;7.07;;;4.57;;
4984;SDS011;2509;49.902;8.600;2023-11-21T07:20:19;6.20;;;3.60;;
4984;SDS011;2509;49.902;8.600;2023-11-21T07:23:21;8.90;;;5.27;;
4984;SDS011;2509;49.902;8.600;2023-11-21T07:26:23;17.47;;;15.77;;
4984;SDS011;2509;49.902;8.600;2023-11-21T07:29:27;8.43;;;6.40;;
4984;SDS011;2509;49.902;8.600;2023-11-21T07:32:29;8.70;;;5.10;;
4984;SDS011;2509;49.902;8.600;2023-11-21T07:35:31;7.63;;;5.37;;
4984;SDS011;2509;49.902;8.600;2023-11-21T07:38:34;9.53;;;5.90;;
4984;SDS011;2509;49.902;8.600;2023-11-21T07:41:35;13.53;;;8.00;;
4984;SDS011;2509;49.902;8.600;2023-11-21T07:44:39;29.43;;;26.83;;
4984;SDS011;2509;49.902;8.600;2023-11-21T07:47:41;14.20;;;8.53;;
4984;SDS011;2509;49.902;8.600;2023-11-21T07:50:42;20.03;;;11.83;;
4984;SDS011;2509;49.902;8.600;2023-11-21T07:53:46;12.10;;;7.77;;
4984;SDS011;2509;49.902;8.600;2023-11-21T07:56:48;15.60;;;8.90;;
4984;SDS011;2509;49.902;8.600;2023-11-21T07:59:51;20.80;;;11.43;;
4984;SDS011;2509;49.902;8.600;2023-11-21T08:02:53;18.07;;;11.10;;
4984;SDS011;2509;49.902;8.600;2023-11-21T08:05:55;7.50;;;6.00;;
4984;SDS011;2509;49.902;8.600;2023-11-21T08:08:57;11.60;;;7.83;;
4984;SDS011;2509;49.902;8.600;2023-11-21T08:11:59;11.73;;;8.10;;
4984;SDS011;2509;49.902;8.600;2023-11-21T08:15:04;42.80;;;38.27;;
4984;SDS011;2509;49.902;8.600;2023-11-21T08:18:07;11.07;;;7.97;;
4984;SDS011;2509;49.902;8.600;2023-11-21T08:21:12;15.00;;;8.70;;
4984;SDS011;2509;49.902;8.600;2023-11-21T08:24:13;8.60;;;6.17;;
4984;SDS011;2509;49.902;8.600;2023-11-21T08:27:16;14.90;;;9.57;;
4984;SDS011;2509;49.902;8.600;2023-11-21T08:30:19;6.80;;;4.93;;
4984;SDS011;2509;49.902;8.600;2023-11-21T08:33:23;8.80;;;5.30;;
4984;SDS011;2509;49.902;8.600;2023-11-21T08:36:25;6.60;;;4.53;;
4984;SDS011;2509;49.902;8.600;2023-11-21T08:39:27;8.17;;;5.63;;
4984;SDS011;2509;49.902;8.600;2023-11-21T08:42:30;7.60;;;5.30;;
4984;SDS011;2509;49.902;8.600;2023-11-21T08:45:34;8.30;;;4.53;;
4984;SDS011;2509;49.902;8.600;2023-11-21T08:48:35;6.80;;;4.63;;
4984;SDS011;2509;49.902;8.600;2023-11-21T08:51:38;7.10;;;4.33;;
4984;SDS011;2509;49.902;8.600;2023-11-21T08:54:39;6.23;;;4.03;;
4984;SDS011;2509;49.902;8.600;2023-11-21T08:57:43;7.10;;;4.10;;
4984;SDS011;2509;49.902;8.600;2023-11-21T09:00:48;6.00;;;3.90;;
4984;SDS011;2509;49.902;8.600;2023-11-21T09:03:49;6.50;;;3.70;;
4984;SDS011;2509;49.902;8.600;2023-11-21T09:06:51;8.83;;;4.77;;
4984;SDS011;2509;49.902;8.600;2023-11-21T09:09:53;20.93;;;19.10;;
4984;SDS011;2509;49.902;8.600;2023-11-21T09:12:54;6.83;;;4.90;;
4984;SDS011;2509;49.902;8.600;2023-11-21T09:15:58;6.33;;;3.87;;
4984;SDS011;2509;49.902;8.600;2023-11-21T09:18:59;7.93;;;4.80;;
4984;SDS011;2509;49.902;8.600;2023-11-21T09:22:05;6.37;;;3.80;;
4984;SDS011;2509;49.902;8.600;2023-11-21T09:25:08;5.53;;;3.13;;
4984;SDS011;2509;49.902;8.600;2023-11-21T09:28:10;5.67;;;3.10;;
4984;SDS011;2509;49.902;8.600;2023-11-21T09:31:13;6.00;;;3.50;;
4984;SDS011;2509;49.902;8.600;2023-11-21T09:34:16;6.43;;;4.30;;
4984;SDS011;2509;49.902;8.600;2023-11-21T09:37:17;7.40;;;5.70;;
4984;SDS011;2509;49.902;8.600;2023-11-21T09:40:20;5.30;;;3.00;;
4984;SDS011;2509;49.902;8.600;2023-11-21T09:43:23;5.90;;;3.30;;
4984;SDS011;2509;49.902;8.600;2023-11-21T09:46:28;5.77;;;3.80;;
4984;SDS011;2509;49.902;8.600;2023-11-21T09:49:31;6.83;;;4.00;;
4984;SDS011;2509;49.902;8.600;2023-11-21T09:52:38;4.60;;;3.20;;
4984;SDS011;2509;49.902;8.600;2023-11-21T09:55:48;5.33;;;3.77;;
4984;SDS011;2509;49.902;8.600;2023-11-21T09:58:51;6.20;;;4.10;;
4984;SDS011;2509;49.902;8.600;2023-11-21T10:01:55;6.20;;;4.10;;
4984;SDS011;2509;49.902;8.600;2023-11-21T10:04:59;5.80;;;3.73;;
4984;SDS011;2509;49.902;8.600;2023-11-21T10:08:01;7.97;;;3.50;;
4984;SDS011;2509;49.902;8.600;2023-11-21T10:11:05;5.10;;;2.90;;
4984;SDS011;2509;49.902;8.600;2023-11-21T10:14:11;4.50;;;2.90;;
4984;SDS011;2509;49.902;8.600;2023-11-21T10:17:15;5.50;;;3.23;;
4984;SDS011;2509;49.902;8.600;2023-11-21T10:20:19;4.73;;;3.10;;
4984;SDS011;2509;49.902;8.600;2023-11-21T10:23:21;5.10;;;3.00;;
4984;SDS011;2509;49.902;8.600;2023-11-21T10:26:23;4.87;;;2.70;;
4984;SDS011;2509;49.902;8.600;2023-11-21T10:29:28;5.53;;;2.93;;
4984;SDS011;2509;49.902;8.600;2023-11-21T10:32:31;4.37;;;2.57;;
4984;SDS011;2509;49.902;8.600;2023-11-21T10:35:42;4.80;;;2.60;;
4984;SDS011;2509;49.902;8.600;2023-11-21T10:38:47;4.90;;;2.70;;
4984;SDS011;2509;49.902;8.600;2023-11-21T10:41:53;4.93;;;2.57;;
4984;SDS011;2509;49.902;8.600;2023-11-21T10:44:56;4.87;;;2.50;;
4984;SDS011;2509;49.902;8.600;2023-11-21T10:47:59;4.67;;;2.33;;
4984;SDS011;2509;49.902;8.600;2023-11-21T10:51:01;3.70;;;1.83;;
4984;SDS011;2509;49.902;8.600;2023-11-21T10:54:09;5.37;;;1.87;;
4984;SDS011;2509;49.902;8.600;2023-11-21T10:57:13;6.67;;;1.80;;
4984;SDS011;2509;49.902;8.600;2023-11-21T11:00:19;4.90;;;2.30;;
4984;SDS011;2509;49.902;8.600;2023-11-21T11:03:22;4.70;;;2.07;;
4984;SDS011;2509;49.902;8.600;2023-11-21T11:06:24;3.60;;;1.60;;
4984;SDS011;2509;49.902;8.600;2023-11-21T11:09:27;5.17;;;1.90;;
4984;SDS011;2509;49.902;8.600;2023-11-21T11:12:32;4.90;;;2.47;;
4984;SDS011;2509;49.902;8.600;2023-11-21T11:15:35;4.10;;;1.87;;
4984;SDS011;2509;49.902;8.600;2023-11-21T11:18:39;3.93;;;1.80;;
4984;SDS011;2509;49.902;8.600;2023-11-21T11:21:44;4.10;;;1.90;;
4984;SDS011;2509;49.902;8.600;2023-11-21T11:24:58;4.17;;;1.77;;
4984;SDS011;2509;49.902;8.600;2023-11-21T11:28:14;4.87;;;3.13;;
4984;SDS011;2509;49.902;8.600;2023-11-21T11:31:24;4.40;;;2.70;;
4984;SDS011;2509;49.902;8.600;2023-11-21T11:34:34;5.00;;;2.73;;
4984;SDS011;2509;49.902;8.600;2023-11-21T11:37:40;5.00;;;3.87;;
4984;SDS011;2509;49.902;8.600;2023-11-21T11:40:44;6.47;;;3.87;;
4984;SDS011;2509;49.902;8.600;2023-11-21T11:43:47;5.13;;;4.63;;
4984;SDS011;2509;49.902;8.600;2023-11-21T11:46:48;5.40;;;4.90;;
4984;SDS011;2509;49.902;8.600;2023-11-21T11:50:00;6.10;;;5.50;;
4984;SDS011;2509;49.902;8.600;2023-11-21T11:53:13;6.00;;;5.40;;
4984;SDS011;2509;49.902;8.600;2023-11-21T11:56:22;6.80;;;6.20;;
4984;SDS011;2509;49.902;8.600;2023-11-21T11:59:26;5.97;;;4.90;;
4984;SDS011;2509;49.902;8.600;2023-11-21T12:02:28;5.00;;;4.47;;
4984;SDS011;2509;49.902;8.600;2023-11-21T12:05:32;6.00;;;5.20;;
4984;SDS011;2509;49.902;8.600;2023-11-21T12:08:36;5.10;;;4.33;;
4984;SDS011;2509;49.902;8.600;2023-11-21T12:11:37;5.07;;;4.27;;
4984;SDS011;2509;49.902;8.600;2023-11-21T12:14:40;5.20;;;4.70;;
4984;SDS011;2509;49.902;8.600;2023-11-21T12:17:42;5.67;;;5.00;;
4984;SDS011;2509;49.902;8.600;2023-11-21T12:20:46;4.83;;;4.30;;
4984;SDS011;2509;49.902;8.600;2023-11-21T12:23:50;5.07;;;4.37;;
4984;SDS011;2509;49.902;8.600;2023-11-21T12:26:52;5.23;;;4.10;;
4984;SDS011;2509;49.902;8.600;2023-11-21T12:29:53;6.70;;;6.00;;
4984;SDS011;2509;49.902;8.600;2023-11-21T12:32:56;6.37;;;5.40;;
4984;SDS011;2509;49.902;8.600;2023-11-21T12:36:00;4.63;;;4.13;;
4984;SDS011;2509;49.902;8.600;2023-11-21T12:39:02;5.33;;;4.47;;
4984;SDS011;2509;49.902;8.600;2023-11-21T12:42:04;5.13;;;4.13;;
4984;SDS011;2509;49.902;8.600;2023-11-21T12:45:10;5.47;;;4.10;;
4984;SDS011;2509;49.902;8.600;2023-11-21T12:48:20;4.87;;;4.37;;
4984;SDS011;2509;49.902;8.600;2023-11-21T12:51:25;4.93;;;4.20;;
4984;SDS011;2509;49.902;8.600;2023-11-21T12:54:29;4.70;;;3.83;;
4984;SDS011;2509;49.902;8.600;2023-11-21T12:57:31;5.90;;;4.07;;
4984;SDS011;2509;49.902;8.600;2023-11-21T13:00:33;5.30;;;4.23;;
4984;SDS011;2509;49.902;8.600;2023-11-21T13:03:37;5.03;;;4.13;;
4984;SDS011;2509;49.902;8.600;2023-11-21T13:06:41;5.43;;;4.27;;
4984;SDS011;2509;49.902;8.600;2023-11-21T13:09:44;4.63;;;3.90;;
4984;SDS011;2509;49.902;8.600;2023-11-21T13:12:45;8.50;;;4.00;;
4984;SDS011;2509;49.902;8.600;2023-11-21T13:15:48;4.60;;;3.73;;
4984;SDS011;2509;49.902;8.600;2023-11-21T13:18:51;5.87;;;4.27;;
4984;SDS011;2509;49.902;8.600;2023-11-21T13:21:54;5.27;;;4.00;;
4984;SDS011;2509;49.902;8.600;2023-11-21T13:24:56;4.83;;;4.17;;
4984;SDS011;2509;49.902;8.600;2023-11-21T13:27:58;5.27;;;4.27;;
4984;SDS011;2509;49.902;8.600;2023-11-21T13:31:00;5.80;;;4.43;;
4984;SDS011;2509;49.902;8.600;2023-11-21T13:34:09;5.17;;;4.37;;
4984;SDS011;2509;49.902;8.600;2023-11-21T13:37:15;7.40;;;6.70;;
4984;SDS011;2509;49.902;8.600;2023-11-21T13:40:19;5.03;;;4.27;;
4984;SDS011;2509;49.902;8.600;2023-11-21T13:43:25;4.57;;;4.03;;
4984;SDS011;2509;49.902;8.600;2023-11-21T13:46:29;4.80;;;3.90;;
4984;SDS011;2509;49.902;8.600;2023-11-21T13:49:36;6.57;;;3.90;;
4984;SDS011;2509;49.902;8.600;2023-11-21T13:52:42;4.90;;;3.90;;
4984;SDS011;2509;49.902;8.600;2023-11-21T13:55:44;5.20;;;3.73;;
4984;SDS011;2509;49.902;8.600;2023-11-21T13:58:47;5.60;;;3.40;;
4984;SDS011;2509;49.902;8.600;2023-11-21T14:01:51;5.37;;;4.03;;
4984;SDS011;2509;49.902;8.600;2023-11-21T14:04:57;5.17;;;3.80;;
4984;SDS011;2509;49.902;8.600;2023-11-21T14:08:02;6.23;;;5.63;;
4984;SDS011;2509;49.902;8.600;2023-11-21T14:11:04;5.37;;;3.63;;
4984;SDS011;2509;49.902;8.600;2023-11-21T14:14:06;8.67;;;7.90;;
4984;SDS011;2509;49.902;8.600;2023-11-21T14:17:09;5.07;;;3.90;;
4984;SDS011;2509;49.902;8.600;2023-11-21T14:20:11;4.73;;;3.60;;
4984;SDS011;2509;49.902;8.600;2023-11-21T14:23:17;4.57;;;3.20;;
4984;SDS011;2509;49.902;8.600;2023-11-21T14:26:21;5.07;;;4.40;;
4984;SDS011;2509;49.902;8.600;2023-11-21T14:29:24;20.87;;;19.10;;
4984;SDS011;2509;49.902;8.600;2023-11-21T14:32:27;4.60;;;3.33;;
4984;SDS011;2509;49.902;8.600;2023-11-21T14:35:29;5.17;;;3.17;;
4984;SDS011;2509;49.902;8.600;2023-11-21T14:38:33;4.73;;;3.07;;
4984;SDS011;2509;49.902;8.600;2023-11-21T14:41:35;4.13;;;2.27;;
4984;SDS011;2509;49.902;8.600;2023-11-21T14:44:39;4.20;;;2.20;;
4984;SDS011;2509;49.902;8.600;2023-11-21T14:47:42;6.27;;;2.67;;
4984;SDS011;2509;49.902;8.600;2023-11-21T14:50:49;4.73;;;2.20;;
4984;SDS011;2509;49.902;8.600;2023-11-21T14:54:14;4.50;;;2.30;;
4984;SDS011;2509;49.902;8.600;2023-11-21T14:57:23;4.17;;;2.60;;
4984;SDS011;2509;49.902;8.600;2023-11-21T15:00:27;6.33;;;4.57;;
4984;SDS011;2509;49.902;8.600;2023-11-21T15:03:44;4.43;;;2.13;;
4984;SDS011;2509;49.902;8.600;2023-11-21T15:06:50;4.43;;;2.00;;
4984;SDS011;2509;49.902;8.600;2023-11-21T15:09:54;5.00;;;2.40;;
4984;SDS011;2509;49.902;8.600;2023-11-21T15:12:55;4.07;;;2.20;;
4984;SDS011;2509;49.902;8.600;2023-11-21T15:15:57;4.60;;;2.00;;
4984;SDS011;2509;49.902;8.600;2023-11-21T15:19:07;4.47;;;2.10;;
4984;SDS011;2509;49.902;8.600;2023-11-21T15:22:09;4.50;;;1.90;;
4984;SDS011;2509;49.902;8.600;2023-11-21T15:25:16;4.87;;;1.93;;
4984;SDS011;2509;49.902;8.600;2023-11-21T15:28:18;4.80;;;2.00;;
4984;SDS011;2509;49.902;8.600;2023-11-21T15:31:20;4.30;;;2.00;;
4984;SDS011;2509;49.902;8.600;2023-11-21T15:34:24;4.10;;;1.90;;
4984;SDS011;2509;49.902;8.600;2023-11-21T15:37:29;3.90;;;1.40;;
4984;SDS011;2509;49.902;8.600;2023-11-21T15:40:32;4.90;;;2.37;;
4984;SDS011;2509;49.902;8.600;2023-11-21T15:43:35;22.13;;;20.13;;
4984;SDS011;2509;49.902;8.600;2023-11-21T15:46:37;5.17;;;2.40;;
4984;SDS011;2509;49.902;8.600;2023-11-21T15:49:53;8.53;;;2.20;;
4984;SDS011;2509;49.902;8.600;2023-11-21T15:53:06;3.80;;;1.80;;
4984;SDS011;2509;49.902;8.600;2023-11-21T15:56:17;7.20;;;2.43;;
4984;SDS011;2509;49.902;8.600;2023-11-21T15:59:34;4.83;;;1.90;;
4984;SDS011;2509;49.902;8.600;2023-11-21T16:02:58;4.70;;;1.90;;
4984;SDS011;2509;49.902;8.600;2023-11-21T16:06:03;5.10;;;1.97;;
4984;SDS011;2509;49.902;8.600;2023-11-21T16:17:37;3.83;;;1.77;;
4984;SDS011;2509;49.902;8.600;2023-11-21T16:20:44;3.63;;;1.83;;
4984;SDS011;2509;49.902;8.600;2023-11-21T16:24:20;5.20;;;2.23;;
4984;SDS011;2509;49.902;8.600;2023-11-21T16:28:00;4.30;;;1.83;;
4984;SDS011;2509;49.902;8.600;2023-11-21T16:35:26;4.10;;;1.90;;
4984;SDS011;2509;49.902;8.600;2023-11-21T16:38:28;4.70;;;3.10;;
4984;SDS011;2509;49.902;8.600;2023-11-21T16:41:29;4.80;;;1.73;;
4984;SDS011;2509;49.902;8.600;2023-11-21T16:44:31;4.20;;;2.17;;
4984;SDS011;2509;49.902;8.600;2023-11-21T16:47:33;4.83;;;1.93;;
4984;SDS011;2509;49.902;8.600;2023-11-21T16:50:36;5.23;;;2.50;;
4984;SDS011;2509;49.902;8.600;2023-11-21T16:53:38;4.13;;;2.40;;
4984;SDS011;2509;49.902;8.600;2023-11-21T16:56:42;6.30;;;2.90;;
4984;SDS011;2509;49.902;8.600;2023-11-21T16:59:44;5.00;;;2.23;;
4984;SDS011;2509;49.902;8.600;2023-11-21T17:02:50;4.60;;;2.50;;
4984;SDS011;2509;49.902;8.600;2023-11-21T17:05:53;5.50;;;3.23;;
4984;SDS011;2509;49.902;8.600;2023-11-21T17:08:55;5.23;;;3.37;;
4984;SDS011;2509;49.902;8.600;2023-11-21T17:11:57;5.10;;;3.70;;
4984;SDS011;2509;49.902;8.600;2023-11-21T17:15:00;5.80;;;3.40;;
4984;SDS011;2509;49.902;8.600;2023-11-21T17:18:02;5.53;;;3.43;;
4984;SDS011;2509;49.902;8.600;2023-11-21T17:21:09;4.90;;;3.00;;
4984;SDS011;2509;49.902;8.600;2023-11-21T17:24:11;5.10;;;3.10;;
4984;SDS011;2509;49.902;8.600;2023-11-21T17:27:13;5.50;;;2.87;;
4984;SDS011;2509;49.902;8.600;2023-11-21T17:30:15;5.23;;;2.90;;
4984;SDS011;2509;49.902;8.600;2023-11-21T17:33:17;5.30;;;3.70;;
4984;SDS011;2509;49.902;8.600;2023-11-21T17:36:20;5.50;;;3.10;;
4984;SDS011;2509;49.902;8.600;2023-11-21T17:39:23;5.50;;;3.30;;
4984;SDS011;2509;49.902;8.600;2023-11-21T17:42:24;4.70;;;3.10;;
4984;SDS011;2509;49.902;8.600;2023-11-21T17:45:28;5.50;;;3.60;;
4984;SDS011;2509;49.902;8.600;2023-11-21T17:48:30;6.20;;;3.40;;
4984;SDS011;2509;49.902;8.600;2023-11-21T17:51:35;5.30;;;3.60;;
4984;SDS011;2509;49.902;8.600;2023-11-21T17:54:38;6.03;;;4.50;;
4984;SDS011;2509;49.902;8.600;2023-11-21T17:57:41;5.57;;;3.67;;
4984;SDS011;2509;49.902;8.600;2023-11-21T18:00:43;8.87;;;4.40;;
4984;SDS011;2509;49.902;8.600;2023-11-21T18:03:46;6.20;;;4.40;;
4984;SDS011;2509;49.902;8.600;2023-11-21T18:06:50;10.70;;;9.60;;
4984;SDS011;2509;49.902;8.600;2023-11-21T18:09:53;8.77;;;6.30;;
4984;SDS011;2509;49.902;8.600;2023-11-21T18:12:55;8.63;;;5.20;;
4984;SDS011;2509;49.902;8.600;2023-11-21T18:15:57;9.90;;;7.50;;
4984;SDS011;2509;49.902;8.600;2023-11-21T18:18:59;12.00;;;7.63;;
4984;SDS011;2509;49.902;8.600;2023-11-21T18:22:02;10.30;;;7.77;;
4984;SDS011;2509;49.902;8.600;2023-11-21T18:25:04;8.33;;;6.40;;
4984;SDS011;2509;49.902;8.600;2023-11-21T18:28:07;8.87;;;6.97;;
4984;SDS011;2509;49.902;8.600;2023-11-21T18:31:09;8.57;;;5.80;;
4984;SDS011;2509;49.902;8.600;2023-11-21T18:34:10;9.90;;;5.50;;
4984;SDS011;2509;49.902;8.600;2023-11-21T18:37:13;8.50;;;4.87;;
4984;SDS011;2509;49.902;8.600;2023-11-21T18:40:15;8.00;;;5.30;;
4984;SDS011;2509;49.902;8.600;2023-11-21T18:43:17;6.80;;;5.13;;
4984;SDS011;2509;49.902;8.600;2023-11-21T18:46:19;6.17;;;4.53;;
4984;SDS011;2509;49.902;8.600;2023-11-21T18:49:21;6.90;;;4.40;;
4984;SDS011;2509;49.902;8.600;2023-11-21T18:52:24;7.10;;;5.20;;
4984;SDS011;2509;49.902;8.600;2023-11-21T18:55:28;7.40;;;4.80;;
4984;SDS011;2509;49.902;8.600;2023-11-21T18:58:30;6.63;;;4.57;;
4984;SDS011;2509;49.902;8.600;2023-11-21T19:01:31;5.73;;;3.90;;
4984;SDS011;2509;49.902;8.600;2023-11-21T19:04:33;5.83;;;3.97;;
4984;SDS011;2509;49.902;8.600;2023-11-21T19:07:36;6.30;;;4.73;;
4984;SDS011;2509;49.902;8.600;2023-11-21T19:10:38;6.53;;;3.80;;